Aviation Digital Data Service (ADDS)

Output produced by TAFs form (0033 UTC 21 January 2018)
found at http://aviationweather.gov/adds/tafs/
 
KRIL 202339Z 2100/2124 20004KT P6SM -SHRA SCT035 OVC070 
     FM210100 27006KT P6SM -SHRASN SCT030 OVC060 
     FM210300 28006KT 2SM -SHSNRA BR BKN008 OVC030 
     FM210500 27005KT 3SM -SHSN BR BKN020 OVC030 
     FM211100 28006KT 4SM BR VCSH BKN025 OVC030 
     FM211900 31013KT P6SM SCT035 BKN040